Time;durP1;ratioP1;P1;durP2;ratioP2;P2;SDS_P1;SDS_P2;PMS_P1;PMS_P2;Temp;Humidity;BMP_temperature;BMP_pressure;BME280_temperature;BME280_humidity;BME280_pressure;Samples;Min_cycle;Max_cycle;Signal;HPM_P1;HPM_P2
2023/12/28 00:01:13;;;;;;;5.72;4.18;;;;;;;;;;5074452;28;20017;-46
2023/12/28 00:03:40;;;;;;;5.95;5.05;;;;;;;;;;5074522;28;20045;-46
2023/12/28 00:06:06;;;;;;;6.93;4.45;;;;;;;;;;5074303;28;20055;-47
2023/12/28 00:08:32;;;;;;;5.50;5.00;;;;;;;;;;5076117;28;20032;-46
2023/12/28 00:10:58;;;;;;;6.43;4.07;;;;;;;;;;5071661;28;20056;-45
2023/12/28 00:13:23;;;;;;;7.78;4.60;;;;;;;;;;5074528;28;20032;-46
2023/12/28 00:15:48;;;;;;;8.07;4.45;;;;;;;;;;5076244;28;20038;-50
2023/12/28 00:18:14;;;;;;;6.10;4.25;;;;;;;;;;5078089;28;20529;-49
2023/12/28 00:20:39;;;;;;;6.30;5.07;;;;;;;;;;5075053;28;20016;-44
2023/12/28 00:23:06;;;;;;;4.97;4.55;;;;;;;;;;5075060;28;20031;-45
2023/12/28 00:25:31;;;;;;;6.35;5.03;;;;;;;;;;5087473;28;20051;-47
2023/12/28 00:27:57;;;;;;;5.70;4.72;;;;;;;;;;5076893;28;20024;-46
2023/12/28 00:30:22;;;;;;;5.18;4.05;;;;;;;;;;5073372;28;20467;-46
2023/12/28 00:32:48;;;;;;;7.15;3.95;;;;;;;;;;5062218;28;20037;-45
2023/12/28 00:35:13;;;;;;;7.55;4.10;;;;;;;;;;5078120;28;20490;-47
2023/12/28 00:37:39;;;;;;;7.20;4.68;;;;;;;;;;5076164;28;20588;-46
2023/12/28 00:40:05;;;;;;;4.85;3.72;;;;;;;;;;5071590;28;20029;-45
2023/12/28 00:42:30;;;;;;;7.05;4.50;;;;;;;;;;5073440;28;20020;-46
2023/12/28 00:44:55;;;;;;;8.05;3.95;;;;;;;;;;5074378;28;20151;-48
2023/12/28 00:47:21;;;;;;;6.88;4.07;;;;;;;;;;5073225;28;20021;-45
2023/12/28 00:49:46;;;;;;;4.47;4.07;;;;;;;;;;5073102;28;20040;-47
2023/12/28 00:52:12;;;;;;;5.30;3.72;;;;;;;;;;5075710;28;20098;-46
2023/12/28 00:54:37;;;;;;;5.82;3.25;;;;;;;;;;5077534;28;20127;-46
2023/12/28 00:57:04;;;;;;;4.45;3.45;;;;;;;;;;5081319;28;20107;-44
2023/12/28 00:59:29;;;;;;;7.65;3.67;;;;;;;;;;5076651;28;20139;-48
2023/12/28 01:01:55;;;;;;;4.97;3.72;;;;;;;;;;5076362;28;20054;-47
2023/12/28 01:04:23;;;;;;;8.55;3.85;;;;;;;;;;5073938;28;20040;-44
2023/12/28 01:06:49;;;;;;;5.88;4.25;;;;;;;;;;5076701;28;20111;-46
2023/12/28 01:09:14;;;;;;;4.30;3.80;;;;;;;;;;5078610;28;20036;-45
2023/12/28 01:11:40;;;;;;;5.05;3.65;;;;;;;;;;5075800;28;20020;-47
2023/12/28 01:14:05;;;;;;;4.43;2.95;;;;;;;;;;5074331;28;20512;-44
2023/12/28 01:16:31;;;;;;;5.93;3.20;;;;;;;;;;5077714;28;20379;-45
2023/12/28 01:18:56;;;;;;;4.05;2.65;;;;;;;;;;5076939;28;20036;-44
2023/12/28 01:21:22;;;;;;;5.25;3.38;;;;;;;;;;5076116;28;20059;-46
2023/12/28 01:23:47;;;;;;;3.85;2.83;;;;;;;;;;5079729;28;20127;-45
2023/12/28 01:26:14;;;;;;;5.65;2.50;;;;;;;;;;5076459;28;20069;-47
2023/12/28 01:28:39;;;;;;;6.85;2.92;;;;;;;;;;5076419;28;20025;-44
2023/12/28 01:31:05;;;;;;;4.35;3.13;;;;;;;;;;5087575;28;20047;-44
2023/12/28 01:33:30;;;;;;;3.75;3.40;;;;;;;;;;5078445;28;20036;-47
2023/12/28 01:35:56;;;;;;;6.38;3.53;;;;;;;;;;5076822;28;20363;-44
2023/12/28 01:38:21;;;;;;;4.97;3.17;;;;;;;;;;5079403;28;20036;-46
2023/12/28 01:40:47;;;;;;;3.65;2.85;;;;;;;;;;5075892;28;20021;-48
2023/12/28 01:43:12;;;;;;;3.53;3.05;;;;;;;;;;5078366;28;20032;-46
2023/12/28 01:45:38;;;;;;;3.58;2.80;;;;;;;;;;5079169;28;20092;-46
2023/12/28 01:48:04;;;;;;;3.55;2.53;;;;;;;;;;5078399;28;20462;-45
2023/12/28 01:50:31;;;;;;;5.18;3.20;;;;;;;;;;5074649;28;20025;-45
2023/12/28 01:53:00;;;;;;;4.75;3.67;;;;;;;;;;5073827;28;20623;-48
2023/12/28 01:55:26;;;;;;;4.50;3.53;;;;;;;;;;5076378;28;20020;-46
2023/12/28 01:57:52;;;;;;;4.05;3.53;;;;;;;;;;5077588;28;20533;-46
2023/12/28 02:00:17;;;;;;;4.28;3.38;;;;;;;;;;5080274;28;20100;-46
2023/12/28 02:02:44;;;;;;;6.80;3.10;;;;;;;;;;5077693;28;20429;-47
2023/12/28 02:05:13;;;;;;;4.85;2.75;;;;;;;;;;5076599;28;20044;-45
2023/12/28 02:07:38;;;;;;;7.97;3.65;;;;;;;;;;5079204;28;20074;-47
2023/12/28 02:10:04;;;;;;;3.83;3.47;;;;;;;;;;5078729;28;20486;-46
2023/12/28 02:12:30;;;;;;;4.68;3.03;;;;;;;;;;5077534;28;20504;-49
2023/12/28 02:14:55;;;;;;;4.70;3.05;;;;;;;;;;5075664;28;20060;-48
2023/12/28 02:17:32;;;;;;;6.43;3.08;;;;;;;;;;5081358;28;20047;-44
2023/12/28 02:19:58;;;;;;;3.75;2.97;;;;;;;;;;5082419;28;20079;-46
2023/12/28 02:22:25;;;;;;;4.72;3.20;;;;;;;;;;5075761;28;20028;-43
2023/12/28 02:25:13;;;;;;;5.43;2.83;;;;;;;;;;5075607;28;20076;-45
2023/12/28 02:27:43;;;;;;;3.75;3.10;;;;;;;;;;5081925;28;20107;-47
2023/12/28 02:30:11;;;;;;;5.38;2.78;;;;;;;;;;5079786;28;20572;-46
2023/12/28 02:33:04;;;;;;;7.28;3.80;;;;;;;;;;5074789;28;20043;-46
2023/12/28 02:35:33;;;;;;;5.50;2.75;;;;;;;;;;5074005;28;20052;-47
2023/12/28 02:38:02;;;;;;;5.15;3.22;;;;;;;;;;5073692;28;20032;-47
2023/12/28 02:40:32;;;;;;;5.88;3.05;;;;;;;;;;5075653;28;20088;-49
2023/12/28 02:42:58;;;;;;;4.57;3.13;;;;;;;;;;5074230;28;20036;-47
2023/12/28 02:45:23;;;;;;;7.30;3.60;;;;;;;;;;5075292;28;20020;-46
2023/12/28 02:47:48;;;;;;;6.45;4.30;;;;;;;;;;5078543;28;20499;-45
2023/12/28 02:50:14;;;;;;;7.55;3.55;;;;;;;;;;5077142;28;20437;-46
2023/12/28 02:52:39;;;;;;;6.28;2.70;;;;;;;;;;5074610;28;20051;-46
2023/12/28 02:55:05;;;;;;;6.15;2.63;;;;;;;;;;5070148;28;20040;-45
2023/12/28 02:57:31;;;;;;;4.80;3.13;;;;;;;;;;5089807;28;20111;-47
2023/12/28 02:59:56;;;;;;;3.28;2.97;;;;;;;;;;5058246;28;20075;-48
2023/12/28 03:02:23;;;;;;;3.80;2.50;;;;;;;;;;5075308;28;20028;-48
2023/12/28 03:04:48;;;;;;;5.97;3.40;;;;;;;;;;5073959;28;20491;-44
2023/12/28 03:07:13;;;;;;;4.70;2.63;;;;;;;;;;5076180;28;20051;-45
2023/12/28 03:09:39;;;;;;;5.35;2.95;;;;;;;;;;5075120;28;20442;-46
2023/12/28 03:12:06;;;;;;;4.32;3.25;;;;;;;;;;5076802;28;20031;-45
2023/12/28 03:14:31;;;;;;;7.38;3.30;;;;;;;;;;5073494;28;20036;-47
2023/12/28 03:16:56;;;;;;;5.18;3.47;;;;;;;;;;5077788;28;20077;-45
2023/12/28 03:19:22;;;;;;;3.35;3.05;;;;;;;;;;5089008;28;20123;-47
2023/12/28 03:21:47;;;;;;;5.72;3.97;;;;;;;;;;5075091;28;20908;-46
2023/12/28 03:24:12;;;;;;;3.60;2.70;;;;;;;;;;5052489;28;20418;-50
2023/12/28 03:26:41;;;;;;;5.70;3.90;;;;;;;;;;5076339;28;20036;-47
2023/12/28 03:29:08;;;;;;;4.57;3.42;;;;;;;;;;5072769;28;20049;-44
2023/12/28 03:31:33;;;;;;;4.75;3.42;;;;;;;;;;5073077;28;20119;-47
2023/12/28 03:33:59;;;;;;;5.75;3.85;;;;;;;;;;5072721;28;20074;-47
2023/12/28 03:36:25;;;;;;;4.35;3.17;;;;;;;;;;5073606;28;20031;-44
2023/12/28 03:38:50;;;;;;;5.28;3.65;;;;;;;;;;5074975;28;20039;-44
2023/12/28 03:41:19;;;;;;;4.93;3.55;;;;;;;;;;5075731;28;20024;-46
2023/12/28 03:43:48;;;;;;;4.28;3.53;;;;;;;;;;5071476;28;20455;-48
2023/12/28 03:46:13;;;;;;;5.88;3.78;;;;;;;;;;5074834;28;20094;-44
2023/12/28 03:48:39;;;;;;;5.90;3.22;;;;;;;;;;5074809;28;20044;-45
2023/12/28 03:51:04;;;;;;;6.45;3.42;;;;;;;;;;5071879;28;20052;-46
2023/12/28 03:53:33;;;;;;;6.75;4.03;;;;;;;;;;5075337;28;20036;-48
2023/12/28 03:55:59;;;;;;;7.88;3.72;;;;;;;;;;5073392;28;20024;-47
2023/12/28 03:58:24;;;;;;;4.85;3.45;;;;;;;;;;5074583;28;20112;-47
2023/12/28 04:00:49;;;;;;;4.60;3.05;;;;;;;;;;5071655;28;20022;-46
2023/12/28 04:03:15;;;;;;;4.30;3.17;;;;;;;;;;5073417;28;20045;-46
2023/12/28 04:05:40;;;;;;;4.68;3.42;;;;;;;;;;5077938;28;20024;-46
2023/12/28 04:08:07;;;;;;;4.38;2.55;;;;;;;;;;5070194;28;20021;-44
2023/12/28 04:10:33;;;;;;;3.67;3.03;;;;;;;;;;5073927;28;20074;-47
2023/12/28 04:12:59;;;;;;;3.88;3.55;;;;;;;;;;5086815;28;20028;-49
2023/12/28 04:15:26;;;;;;;6.43;3.55;;;;;;;;;;5071676;28;20063;-46
2023/12/28 04:17:52;;;;;;;3.95;2.95;;;;;;;;;;5073740;28;20031;-45
2023/12/28 04:20:17;;;;;;;3.85;3.30;;;;;;;;;;5072935;28;20119;-48
2023/12/28 04:22:43;;;;;;;3.67;3.30;;;;;;;;;;5073224;28;20641;-48
2023/12/28 04:25:09;;;;;;;3.45;2.78;;;;;;;;;;5072725;28;20028;-45
2023/12/28 04:27:35;;;;;;;3.42;2.85;;;;;;;;;;5074532;28;20029;-48
2023/12/28 04:30:01;;;;;;;4.10;3.33;;;;;;;;;;5074388;28;20063;-46
2023/12/28 04:32:27;;;;;;;4.57;2.65;;;;;;;;;;5074383;28;20051;-46
2023/12/28 04:34:53;;;;;;;4.55;2.85;;;;;;;;;;5077115;28;20060;-46
2023/12/28 04:37:19;;;;;;;4.45;3.25;;;;;;;;;;5076828;28;20034;-45
2023/12/28 04:39:45;;;;;;;3.40;2.92;;;;;;;;;;5074392;28;20555;-46
2023/12/28 04:42:11;;;;;;;5.03;3.80;;;;;;;;;;5077134;28;20024;-47
2023/12/28 04:44:40;;;;;;;5.43;2.70;;;;;;;;;;5073458;28;20040;-45
2023/12/28 04:47:05;;;;;;;5.85;3.67;;;;;;;;;;5076216;28;20020;-47
2023/12/28 04:49:31;;;;;;;3.47;3.17;;;;;;;;;;5074050;28;20033;-45
2023/12/28 04:51:56;;;;;;;5.32;3.40;;;;;;;;;;5073245;28;20043;-47
2023/12/28 04:54:22;;;;;;;4.15;3.22;;;;;;;;;;5072419;28;20037;-47
2023/12/28 04:56:48;;;;;;;6.68;4.15;;;;;;;;;;5075384;28;20028;-48
2023/12/28 04:59:14;;;;;;;3.80;3.20;;;;;;;;;;5074623;28;20041;-45
2023/12/28 05:01:45;;;;;;;4.20;3.58;;;;;;;;;;5072918;28;20528;-46
2023/12/28 05:04:11;;;;;;;5.55;3.28;;;;;;;;;;5068887;28;20546;-47
2023/12/28 05:06:37;;;;;;;5.47;3.63;;;;;;;;;;5074118;28;20059;-48
2023/12/28 05:09:04;;;;;;;5.60;4.43;;;;;;;;;;5073421;28;20033;-47
2023/12/28 05:11:29;;;;;;;4.70;3.85;;;;;;;;;;5077210;28;20038;-45
2023/12/28 05:13:54;;;;;;;5.72;3.03;;;;;;;;;;5070665;28;20115;-44
2023/12/28 05:16:20;;;;;;;3.95;3.08;;;;;;;;;;5074891;28;20033;-48
2023/12/28 05:18:47;;;;;;;4.18;3.45;;;;;;;;;;5070629;28;20036;-46
2023/12/28 05:21:12;;;;;;;4.43;3.80;;;;;;;;;;5074123;28;20021;-44
2023/12/28 05:23:38;;;;;;;4.57;3.47;;;;;;;;;;5072517;28;20045;-46
2023/12/28 05:26:04;;;;;;;5.53;3.13;;;;;;;;;;5073788;28;20027;-46
2023/12/28 05:28:29;;;;;;;4.78;3.72;;;;;;;;;;5070493;28;20649;-47
2023/12/28 05:30:55;;;;;;;3.88;3.03;;;;;;;;;;5075939;28;20490;-44
2023/12/28 05:33:20;;;;;;;3.55;2.78;;;;;;;;;;5088500;28;20048;-47
2023/12/28 05:35:46;;;;;;;3.47;3.17;;;;;;;;;;5077693;28;20028;-48
2023/12/28 05:38:11;;;;;;;4.07;2.97;;;;;;;;;;5077594;28;20089;-45
2023/12/28 05:40:37;;;;;;;4.72;2.75;;;;;;;;;;5075173;28;20489;-48
2023/12/28 05:43:02;;;;;;;5.43;3.30;;;;;;;;;;5076683;28;20036;-46
2023/12/28 05:45:28;;;;;;;10.40;3.03;;;;;;;;;;5077737;28;20020;-44
2023/12/28 05:47:53;;;;;;;3.25;2.50;;;;;;;;;;5089005;28;20025;-47
2023/12/28 05:50:19;;;;;;;5.78;5.22;;;;;;;;;;5078749;28;20044;-46
2023/12/28 05:52:44;;;;;;;3.63;3.05;;;;;;;;;;5081934;28;20053;-46
2023/12/28 05:55:09;;;;;;;4.05;2.70;;;;;;;;;;5070190;28;20043;-47
2023/12/28 05:57:35;;;;;;;3.47;2.45;;;;;;;;;;5079331;28;20032;-43
2023/12/28 06:00:00;;;;;;;3.33;2.55;;;;;;;;;;5077025;28;20089;-47
2023/12/28 06:02:25;;;;;;;4.78;2.75;;;;;;;;;;5077862;28;20600;-46
2023/12/28 06:04:51;;;;;;;3.38;2.90;;;;;;;;;;5075179;28;20505;-46
2023/12/28 06:07:16;;;;;;;4.85;3.38;;;;;;;;;;5081664;28;20027;-48
2023/12/28 06:09:42;;;;;;;4.15;2.83;;;;;;;;;;5074721;28;20036;-48
2023/12/28 06:12:07;;;;;;;4.65;2.40;;;;;;;;;;5081366;28;20042;-46
2023/12/28 06:14:33;;;;;;;3.95;3.10;;;;;;;;;;5076946;28;20161;-48
2023/12/28 06:16:58;;;;;;;3.90;2.65;;;;;;;;;;5077322;28;20028;-49
2023/12/28 06:19:24;;;;;;;3.47;2.83;;;;;;;;;;5078724;28;20064;-50
2023/12/28 06:21:50;;;;;;;5.60;2.88;;;;;;;;;;5077857;28;20029;-49
2023/12/28 06:24:15;;;;;;;3.78;2.65;;;;;;;;;;5075501;28;20067;-47
2023/12/28 06:26:42;;;;;;;4.00;3.00;;;;;;;;;;5081718;28;20055;-46
2023/12/28 06:29:09;;;;;;;4.95;2.67;;;;;;;;;;5075075;28;20127;-47
2023/12/28 06:31:36;;;;;;;4.28;2.90;;;;;;;;;;5077469;28;20028;-49
2023/12/28 06:34:03;;;;;;;3.80;2.13;;;;;;;;;;5079269;28;20036;-45
2023/12/28 06:36:28;;;;;;;3.15;2.20;;;;;;;;;;5075952;28;20421;-48
2023/12/28 06:38:53;;;;;;;3.70;2.67;;;;;;;;;;5084971;28;20036;-49
2023/12/28 06:41:19;;;;;;;3.90;3.08;;;;;;;;;;5075478;28;20043;-46
2023/12/28 06:43:44;;;;;;;3.17;2.88;;;;;;;;;;5077795;28;20044;-44
2023/12/28 06:46:09;;;;;;;2.88;2.53;;;;;;;;;;5075125;28;20047;-47
2023/12/28 06:48:35;;;;;;;3.72;2.17;;;;;;;;;;5093063;28;20028;-46
2023/12/28 06:51:00;;;;;;;3.45;2.38;;;;;;;;;;5074438;28;20055;-47
2023/12/28 06:53:26;;;;;;;4.68;2.67;;;;;;;;;;5075165;28;20084;-48
2023/12/28 06:55:51;;;;;;;3.38;2.92;;;;;;;;;;5077264;28;20018;-46
2023/12/28 06:58:17;;;;;;;4.63;2.53;;;;;;;;;;5078180;28;20040;-46
2023/12/28 07:00:43;;;;;;;4.00;2.72;;;;;;;;;;5074833;28;20070;-45
2023/12/28 07:03:09;;;;;;;4.47;3.75;;;;;;;;;;5075662;28;20046;-48
2023/12/28 07:05:35;;;;;;;3.20;2.70;;;;;;;;;;5075661;28;20035;-47
2023/12/28 07:08:00;;;;;;;3.40;2.40;;;;;;;;;;5078343;28;20031;-50
2023/12/28 07:10:26;;;;;;;5.10;3.58;;;;;;;;;;5074554;28;20394;-48
2023/12/28 07:12:51;;;;;;;4.75;2.95;;;;;;;;;;5074834;28;20115;-50
2023/12/28 07:15:17;;;;;;;3.75;3.15;;;;;;;;;;5072215;28;20032;-51
2023/12/28 07:17:42;;;;;;;4.35;2.67;;;;;;;;;;5075848;28;20024;-46
2023/12/28 07:20:11;;;;;;;3.55;3.25;;;;;;;;;;5079822;28;20032;-47
2023/12/28 07:22:37;;;;;;;;;;;;;;;;;;5086794;28;20536;-48
2023/12/28 07:25:03;;;;;;;5.70;2.58;;;;;;;;;;5073464;28;19916;-51
2023/12/28 07:27:28;;;;;;;4.18;2.75;;;;;;;;;;5075765;28;20058;-46
2023/12/28 07:29:53;;;;;;;2.65;2.45;;;;;;;;;;5084291;28;20060;-46
2023/12/28 07:32:20;;;;;;;4.35;2.88;;;;;;;;;;5071843;28;20028;-46
2023/12/28 07:34:45;;;;;;;4.82;2.72;;;;;;;;;;5078270;28;20029;-50
2023/12/28 07:37:11;;;;;;;4.82;2.72;;;;;;;;;;5071887;28;20120;-47
2023/12/28 07:39:36;;;;;;;3.90;3.33;;;;;;;;;;5077811;28;20060;-47
2023/12/28 07:42:02;;;;;;;3.40;2.90;;;;;;;;;;5077195;28;20528;-50
2023/12/28 07:44:27;;;;;;;4.45;2.97;;;;;;;;;;5073600;28;20490;-48
2023/12/28 07:46:52;;;;;;;4.95;2.63;;;;;;;;;;5076827;28;20058;-48
2023/12/28 07:49:18;;;;;;;5.10;3.42;;;;;;;;;;5078092;28;20043;-45
2023/12/28 07:51:43;;;;;;;3.30;2.92;;;;;;;;;;5072821;28;20493;-49
2023/12/28 07:54:09;;;;;;;4.43;3.17;;;;;;;;;;5077887;28;20063;-43
2023/12/28 07:56:34;;;;;;;5.60;2.67;;;;;;;;;;5079059;28;20027;-48
2023/12/28 07:58:59;;;;;;;5.57;3.05;;;;;;;;;;5072489;28;20063;-47
2023/12/28 08:01:25;;;;;;;5.38;2.95;;;;;;;;;;5089366;28;20028;-45
2023/12/28 08:03:50;;;;;;;4.65;2.58;;;;;;;;;;5075207;28;20043;-50
2023/12/28 08:06:16;;;;;;;4.65;3.00;;;;;;;;;;5076457;28;20090;-47
2023/12/28 08:08:41;;;;;;;4.85;3.38;;;;;;;;;;5072401;28;20032;-49
2023/12/28 08:11:07;;;;;;;3.95;2.88;;;;;;;;;;5083749;28;20051;-45
2023/12/28 08:13:32;;;;;;;6.10;3.72;;;;;;;;;;5072535;28;20063;-48
2023/12/28 08:15:57;;;;;;;4.93;3.88;;;;;;;;;;5079950;28;20027;-48
2023/12/28 08:18:23;;;;;;;4.05;3.35;;;;;;;;;;5080738;28;20036;-46
2023/12/28 08:20:49;;;;;;;6.75;3.42;;;;;;;;;;5075419;28;20016;-49
2023/12/28 08:23:15;;;;;;;4.90;2.95;;;;;;;;;;5078657;28;20056;-49
2023/12/28 08:25:40;;;;;;;6.85;3.72;;;;;;;;;;5081757;28;20465;-47
2023/12/28 08:28:06;;;;;;;4.97;3.75;;;;;;;;;;5083135;28;20060;-47
2023/12/28 08:30:31;;;;;;;4.90;4.20;;;;;;;;;;5079005;28;20016;-48
2023/12/28 08:32:57;;;;;;;5.43;3.70;;;;;;;;;;5081383;28;20036;-47
2023/12/28 08:35:22;;;;;;;5.32;3.60;;;;;;;;;;5076259;28;20103;-45
2023/12/28 08:37:47;;;;;;;7.32;4.05;;;;;;;;;;5077745;28;20080;-47
2023/12/28 08:40:13;;;;;;;5.60;4.97;;;;;;;;;;5068570;28;20028;-50
2023/12/28 08:42:39;;;;;;;5.03;4.05;;;;;;;;;;5072585;28;20416;-46
2023/12/28 08:45:05;;;;;;;8.07;4.43;;;;;;;;;;5074078;28;20036;-46
2023/12/28 08:47:30;;;;;;;5.57;3.95;;;;;;;;;;5078171;28;20387;-50
2023/12/28 08:49:56;;;;;;;4.28;3.20;;;;;;;;;;5078739;28;20050;-44
2023/12/28 08:52:21;;;;;;;5.38;3.78;;;;;;;;;;5079814;28;20032;-46
2023/12/28 08:54:47;;;;;;;6.47;4.03;;;;;;;;;;5082314;28;20570;-47
2023/12/28 08:57:12;;;;;;;5.28;3.63;;;;;;;;;;5080657;28;20095;-48
2023/12/28 08:59:38;;;;;;;4.25;3.85;;;;;;;;;;5078950;28;20367;-45
2023/12/28 09:02:03;;;;;;;5.68;3.40;;;;;;;;;;5070642;28;20023;-48
2023/12/28 09:04:29;;;;;;;4.90;3.55;;;;;;;;;;5069630;28;20047;-48
2023/12/28 09:06:55;;;;;;;6.30;2.63;;;;;;;;;;5076826;28;20095;-46
2023/12/28 09:09:21;;;;;;;4.03;3.28;;;;;;;;;;5074554;28;20028;-47
2023/12/28 09:11:46;;;;;;;6.53;4.05;;;;;;;;;;5075555;28;20079;-47
2023/12/28 09:14:12;;;;;;;5.88;2.80;;;;;;;;;;5075569;28;20669;-47
2023/12/28 09:16:39;;;;;;;5.57;3.70;;;;;;;;;;5078002;28;20029;-50
2023/12/28 09:19:04;;;;;;;5.82;3.63;;;;;;;;;;5077572;28;20033;-46
2023/12/28 09:21:29;;;;;;;7.82;3.03;;;;;;;;;;5078488;28;20394;-47
2023/12/28 09:23:55;;;;;;;4.20;3.42;;;;;;;;;;5080317;28;20028;-49
2023/12/28 09:26:20;;;;;;;5.65;4.20;;;;;;;;;;5087315;28;20028;-46
2023/12/28 09:28:46;;;;;;;5.25;4.03;;;;;;;;;;5078345;28;20032;-47
2023/12/28 09:31:11;;;;;;;6.85;4.70;;;;;;;;;;5078552;28;20020;-47
2023/12/28 09:33:37;;;;;;;29.90;11.23;;;;;;;;;;5084188;28;20188;-49
2023/12/28 09:36:06;;;;;;;4.78;3.47;;;;;;;;;;5068107;28;20020;-45
2023/12/28 09:38:31;;;;;;;13.95;7.43;;;;;;;;;;5083271;28;20049;-51
2023/12/28 09:41:02;;;;;;;18.17;6.93;;;;;;;;;;5054334;28;20036;-48
2023/12/28 09:43:45;;;;;;;10.68;5.50;;;;;;;;;;5094336;28;20040;-48
2023/12/28 09:46:11;;;;;;;20.23;7.68;;;;;;;;;;5077950;28;20491;-46
2023/12/28 09:48:38;;;;;;;14.88;5.85;;;;;;;;;;5078489;28;20037;-49
2023/12/28 09:51:04;;;;;;;23.92;10.95;;;;;;;;;;5077965;28;20024;-45
2023/12/28 09:53:30;;;;;;;17.08;8.27;;;;;;;;;;5064264;28;20098;-48
2023/12/28 09:55:55;;;;;;;8.02;5.47;;;;;;;;;;5063185;28;20124;-48
2023/12/28 09:58:21;;;;;;;13.30;6.00;;;;;;;;;;5084019;28;20443;-47
2023/12/28 10:00:49;;;;;;;12.57;5.95;;;;;;;;;;5082549;28;20013;-47
2023/12/28 10:03:18;;;;;;;12.23;5.43;;;;;;;;;;5078812;28;20458;-46
2023/12/28 10:05:45;;;;;;;5.22;3.30;;;;;;;;;;5075852;28;20025;-49
2023/12/28 10:08:16;;;;;;;2.63;2.08;;;;;;;;;;5081562;28;20032;-46
2023/12/28 10:10:43;;;;;;;3.33;2.38;;;;;;;;;;5076238;28;20020;-50
2023/12/28 10:13:09;;;;;;;4.32;3.08;;;;;;;;;;5077265;28;20040;-46
2023/12/28 10:15:38;;;;;;;2.60;2.40;;;;;;;;;;5078916;28;20032;-46
2023/12/28 10:18:04;;;;;;;7.25;3.72;;;;;;;;;;5076733;28;20085;-47
2023/12/28 10:20:31;;;;;;;4.75;2.83;;;;;;;;;;5078035;28;20055;-49
2023/12/28 10:22:57;;;;;;;3.15;2.55;;;;;;;;;;5072691;28;20043;-48
2023/12/28 10:25:23;;;;;;;3.30;2.65;;;;;;;;;;5079792;28;20016;-49
2023/12/28 10:27:53;;;;;;;4.72;3.20;;;;;;;;;;5083431;28;20378;-47
2023/12/28 10:30:20;;;;;;;7.20;3.38;;;;;;;;;;5078515;28;20033;-46
2023/12/28 10:32:45;;;;;;;7.40;3.70;;;;;;;;;;5078648;28;20028;-47
2023/12/28 10:35:10;;;;;;;9.05;4.85;;;;;;;;;;5079811;28;20103;-47
2023/12/28 10:37:41;;;;;;;8.38;2.83;;;;;;;;;;5075280;28;20024;-47
2023/12/28 10:40:07;;;;;;;14.20;6.18;;;;;;;;;;5077211;28;20037;-48
2023/12/28 10:42:42;;;;;;;5.90;2.90;;;;;;;;;;5068900;28;20032;-49
2023/12/28 10:45:10;;;;;;;3.50;2.95;;;;;;;;;;5073158;28;20530;-46
2023/12/28 10:47:43;;;;;;;7.40;3.47;;;;;;;;;;5075617;28;20031;-47
2023/12/28 10:50:11;;;;;;;8.40;3.38;;;;;;;;;;5074812;28;20067;-47
2023/12/28 10:52:40;;;;;;;5.35;2.83;;;;;;;;;;5080884;28;20054;-47
2023/12/28 10:55:29;;;;;;;7.45;4.07;;;;;;;;;;5076994;28;20085;-48
2023/12/28 10:58:11;;;;;;;4.85;4.18;;;;;;;;;;5065515;28;20109;-45
2023/12/28 11:00:43;;;;;;;7.55;4.53;;;;;;;;;;5087846;28;20051;-48
2023/12/28 11:03:11;;;;;;;4.55;2.80;;;;;;;;;;5075052;28;20058;-48
2023/12/28 11:05:38;;;;;;;6.53;3.65;;;;;;;;;;5055098;28;20029;-46
2023/12/28 11:08:07;;;;;;;5.13;3.47;;;;;;;;;;5075894;28;20048;-46
2023/12/28 11:10:34;;;;;;;6.45;4.78;;;;;;;;;;5074655;28;20017;-53
2023/12/28 11:13:01;;;;;;;3.92;3.08;;;;;;;;;;5076665;28;20505;-47
2023/12/28 11:15:26;;;;;;;6.22;4.55;;;;;;;;;;5074367;28;20394;-48
2023/12/28 11:17:52;;;;;;;7.35;4.55;;;;;;;;;;5081000;28;20016;-46
2023/12/28 11:20:19;;;;;;;11.20;5.22;;;;;;;;;;5075691;28;20501;-46
2023/12/28 11:22:45;;;;;;;10.63;5.05;;;;;;;;;;5077157;28;20809;-47
2023/12/28 11:25:18;;;;;;;15.95;7.97;;;;;;;;;;5070511;28;20591;-48
2023/12/28 11:27:46;;;;;;;8.07;5.68;;;;;;;;;;5076467;28;20025;-45
2023/12/28 11:30:12;;;;;;;7.63;5.50;;;;;;;;;;5079205;28;20044;-48
2023/12/28 11:32:43;;;;;;;5.30;4.05;;;;;;;;;;5074825;28;20051;-49
2023/12/28 11:35:11;;;;;;;6.85;4.20;;;;;;;;;;5079190;28;20101;-48
2023/12/28 11:37:39;;;;;;;10.93;7.20;;;;;;;;;;5073987;28;20128;-48
2023/12/28 11:40:16;;;;;;;5.05;3.63;;;;;;;;;;5069284;28;20248;-48
2023/12/28 11:42:52;;;;;;;6.93;3.25;;;;;;;;;;5069183;28;20082;-45
2023/12/28 11:45:19;;;;;;;4.40;2.67;;;;;;;;;;5090385;28;20115;-48
2023/12/28 11:47:45;;;;;;;5.65;3.10;;;;;;;;;;5077493;28;20032;-45
2023/12/28 11:50:11;;;;;;;2.92;2.40;;;;;;;;;;5074506;28;20054;-47
2023/12/28 11:52:36;;;;;;;3.70;2.92;;;;;;;;;;5077106;28;20048;-49
2023/12/28 11:55:02;;;;;;;6.07;3.78;;;;;;;;;;5064612;28;20045;-46
2023/12/28 11:57:27;;;;;;;4.65;3.08;;;;;;;;;;5073761;28;20032;-44
2023/12/28 11:59:55;;;;;;;5.78;2.65;;;;;;;;;;5073344;28;20040;-46
2023/12/28 12:02:21;;;;;;;3.38;2.33;;;;;;;;;;5072004;28;20047;-45
2023/12/28 12:04:46;;;;;;;3.08;2.42;;;;;;;;;;5082604;28;20067;-47
2023/12/28 12:07:12;;;;;;;6.80;3.00;;;;;;;;;;5076983;28;20027;-46
2023/12/28 12:09:37;;;;;;;3.25;2.10;;;;;;;;;;5073046;28;20543;-46
2023/12/28 12:12:03;;;;;;;4.15;2.30;;;;;;;;;;5070454;28;20029;-45
2023/12/28 12:14:30;;;;;;;2.80;2.55;;;;;;;;;;5074605;28;20072;-45
2023/12/28 12:16:56;;;;;;;2.83;2.10;;;;;;;;;;5074489;28;20013;-46
2023/12/28 12:19:27;;;;;;;2.88;1.67;;;;;;;;;;5073514;28;20040;-48
2023/12/28 12:21:54;;;;;;;3.65;2.88;;;;;;;;;;5077198;28;20021;-47
2023/12/28 12:24:20;;;;;;;2.45;2.22;;;;;;;;;;5074379;28;20549;-47
2023/12/28 12:26:46;;;;;;;2.92;2.30;;;;;;;;;;5072109;28;20035;-50
2023/12/28 12:29:12;;;;;;;2.40;2.10;;;;;;;;;;5072541;28;20044;-48
2023/12/28 12:31:41;;;;;;;4.43;2.13;;;;;;;;;;5073754;28;20059;-47
2023/12/28 12:34:07;;;;;;;2.60;2.38;;;;;;;;;;5080141;28;20068;-47
2023/12/28 12:36:33;;;;;;;3.38;1.90;;;;;;;;;;5080710;28;20024;-46
2023/12/28 12:38:58;;;;;;;5.95;1.77;;;;;;;;;;5082372;28;20043;-46
2023/12/28 12:41:24;;;;;;;3.40;2.13;;;;;;;;;;5075386;28;20021;-48
2023/12/28 12:43:49;;;;;;;3.22;2.92;;;;;;;;;;5072713;28;20036;-47
2023/12/28 12:46:15;;;;;;;3.67;2.50;;;;;;;;;;5076117;28;20044;-46
2023/12/28 12:48:40;;;;;;;3.03;2.00;;;;;;;;;;5079518;28;20032;-49
2023/12/28 12:51:06;;;;;;;2.95;2.20;;;;;;;;;;5084747;28;20212;-46
2023/12/28 12:53:36;;;;;;;3.78;1.60;;;;;;;;;;5078082;28;20064;-46
2023/12/28 12:56:04;;;;;;;3.78;1.83;;;;;;;;;;5080805;28;20016;-48
2023/12/28 12:58:30;;;;;;;3.92;2.13;;;;;;;;;;5084568;28;20397;-48
2023/12/28 13:00:56;;;;;;;3.28;2.03;;;;;;;;;;5086504;28;20028;-46
2023/12/28 13:03:22;;;;;;;6.07;2.72;;;;;;;;;;5083379;28;21712;-46
2023/12/28 13:05:48;;;;;;;3.92;2.47;;;;;;;;;;5083409;28;20055;-46
2023/12/28 13:08:14;;;;;;;3.55;2.33;;;;;;;;;;5081683;28;20036;-48
2023/12/28 13:10:39;;;;;;;2.63;1.90;;;;;;;;;;5081920;28;20031;-45
2023/12/28 13:13:08;;;;;;;2.33;1.95;;;;;;;;;;5080453;28;20028;-45
2023/12/28 13:15:33;;;;;;;2.95;2.22;;;;;;;;;;5090427;28;20036;-48
2023/12/28 13:17:59;;;;;;;3.05;1.88;;;;;;;;;;5076336;28;20035;-49
2023/12/28 13:20:25;;;;;;;3.33;2.03;;;;;;;;;;5080453;28;20020;-48
2023/12/28 13:22:50;;;;;;;2.90;1.90;;;;;;;;;;5076433;28;20023;-46
2023/12/28 13:25:16;;;;;;;2.50;1.45;;;;;;;;;;5085916;28;20071;-48
2023/12/28 13:27:41;;;;;;;4.63;1.73;;;;;;;;;;5061921;28;20021;-48
2023/12/28 13:30:07;;;;;;;3.30;1.85;;;;;;;;;;5080950;28;20048;-47
2023/12/28 13:32:33;;;;;;;2.55;1.55;;;;;;;;;;5073487;28;20108;-48
2023/12/28 13:34:59;;;;;;;3.38;2.20;;;;;;;;;;5076541;28;20498;-47
2023/12/28 13:37:24;;;;;;;1.88;1.73;;;;;;;;;;5057386;28;20043;-47
2023/12/28 13:39:49;;;;;;;1.95;1.35;;;;;;;;;;5076738;28;20034;-47
2023/12/28 13:42:15;;;;;;;1.52;1.42;;;;;;;;;;5073803;28;20036;-48
2023/12/28 13:44:41;;;;;;;2.00;1.48;;;;;;;;;;5076967;28;20032;-50
2023/12/28 13:47:07;;;;;;;3.13;1.83;;;;;;;;;;5080736;28;20059;-46
2023/12/28 13:49:32;;;;;;;2.38;1.80;;;;;;;;;;5076287;28;20040;-48
2023/12/28 13:51:58;;;;;;;2.28;1.52;;;;;;;;;;5083591;28;20111;-47
2023/12/28 13:54:23;;;;;;;4.13;2.00;;;;;;;;;;5077211;28;20169;-49
2023/12/28 13:56:49;;;;;;;3.20;2.13;;;;;;;;;;5075845;28;20036;-46
2023/12/28 13:59:14;;;;;;;3.03;2.72;;;;;;;;;;5077623;28;20044;-48
2023/12/28 14:01:40;;;;;;;3.85;2.38;;;;;;;;;;5077849;28;20086;-47
2023/12/28 14:04:06;;;;;;;2.25;2.05;;;;;;;;;;5086061;28;20469;-48
2023/12/28 14:06:31;;;;;;;2.70;1.50;;;;;;;;;;5058691;28;20086;-47
2023/12/28 14:08:57;;;;;;;4.07;2.40;;;;;;;;;;5080171;28;20052;-47
2023/12/28 14:11:26;;;;;;;2.17;1.60;;;;;;;;;;5082465;28;20478;-48
2023/12/28 14:13:51;;;;;;;3.05;1.95;;;;;;;;;;5080864;28;20040;-45
2023/12/28 14:16:16;;;;;;;1.88;1.50;;;;;;;;;;5078242;28;20475;-48
2023/12/28 14:18:42;;;;;;;3.63;1.90;;;;;;;;;;5077479;28;20041;-47
2023/12/28 14:21:13;;;;;;;3.70;2.00;;;;;;;;;;5073828;28;20020;-47
2023/12/28 14:23:39;;;;;;;2.67;2.08;;;;;;;;;;5076148;28;20032;-46
2023/12/28 14:26:14;;;;;;;3.17;2.20;;;;;;;;;;5081347;28;20524;-47
2023/12/28 14:28:43;;;;;;;2.10;1.85;;;;;;;;;;5079371;28;20036;-46
2023/12/28 14:31:10;;;;;;;3.58;2.20;;;;;;;;;;5072918;28;20029;-46
2023/12/28 14:33:36;;;;;;;2.58;1.90;;;;;;;;;;5075732;28;20093;-50
2023/12/28 14:36:03;;;;;;;2.92;1.83;;;;;;;;;;5074305;28;20090;-46
2023/12/28 14:38:29;;;;;;;2.88;2.10;;;;;;;;;;5076505;28;20105;-48